createdAt,value
2023-05-17T00:02:23.944Z,21.25
2023-05-17T00:05:12.451Z,20.95
2023-05-17T00:07:59.438Z,19.95
2023-05-17T00:10:45.501Z,20.42
2023-05-17T00:13:32.316Z,19.60
2023-05-17T00:16:18.877Z,18.88
2023-05-17T00:19:05.428Z,20.23
2023-05-17T00:21:52.527Z,19.30
2023-05-17T00:24:38.849Z,19.38
2023-05-17T00:27:24.962Z,18.98
2023-05-17T00:30:11.321Z,18.33
2023-05-17T00:32:57.481Z,17.13
2023-05-17T00:35:43.372Z,16.80
2023-05-17T00:38:31.365Z,16.83
2023-05-17T00:41:26.758Z,17.80
2023-05-17T00:44:13.156Z,17.27
2023-05-17T00:47:00.087Z,16.25
2023-05-17T00:49:47.167Z,16.75
2023-05-17T00:52:33.579Z,16.38
2023-05-17T00:55:20.838Z,16.05
2023-05-17T00:58:07.078Z,15.88
2023-05-17T01:00:53.773Z,16.50
2023-05-17T01:03:40.192Z,16.05
2023-05-17T01:06:26.773Z,16.20
2023-05-17T01:09:13.404Z,15.48
2023-05-17T01:12:09.091Z,15.40
2023-05-17T01:15:07.426Z,13.88
2023-05-17T01:18:06.031Z,15.90
2023-05-17T01:20:53.962Z,15.98
2023-05-17T01:23:43.708Z,16.20
2023-05-17T01:26:40.170Z,16.85
2023-05-17T01:29:29.236Z,16.40
2023-05-17T01:32:16.420Z,16.20
2023-05-17T01:35:06.242Z,16.02
2023-05-17T01:37:54.660Z,15.85
2023-05-17T01:40:46.766Z,17.48
2023-05-17T01:43:38.634Z,16.50
2023-05-17T01:46:48.749Z,17.02
2023-05-17T01:49:37.988Z,17.50
2023-05-17T01:52:32.846Z,17.15
2023-05-17T01:56:01.099Z,16.40
2023-05-17T01:58:49.811Z,15.82
2023-05-17T02:01:36.670Z,16.02
2023-05-17T02:04:23.365Z,14.90
2023-05-17T02:07:10.041Z,14.85
2023-05-17T02:09:56.082Z,14.70
2023-05-17T02:12:42.238Z,14.85
2023-05-17T02:15:28.667Z,14.38
2023-05-17T02:18:17.305Z,13.90
2023-05-17T02:21:03.582Z,13.60
2023-05-17T02:23:51.850Z,12.77
2023-05-17T02:26:43.881Z,13.00
2023-05-17T02:29:31.534Z,11.93
2023-05-17T02:32:19.214Z,12.23
2023-05-17T02:35:05.981Z,12.50
2023-05-17T02:37:53.382Z,12.18
2023-05-17T02:40:42.426Z,12.38
2023-05-17T02:43:29.363Z,11.80
2023-05-17T02:46:16.401Z,11.63
2023-05-17T02:49:04.288Z,12.13
2023-05-17T02:51:51.379Z,11.35
2023-05-17T02:54:38.169Z,11.90
2023-05-17T02:57:24.680Z,11.60
2023-05-17T03:00:11.862Z,11.65
2023-05-17T03:02:58.148Z,10.73
2023-05-17T03:05:44.997Z,11.30
2023-05-17T03:08:32.681Z,11.23
2023-05-17T03:11:20.657Z,11.30
2023-05-17T03:14:07.380Z,11.32
2023-05-17T03:16:53.762Z,11.57
2023-05-17T03:19:44.875Z,12.25
2023-05-17T03:22:34.794Z,12.43
2023-05-17T03:25:22.205Z,11.70
2023-05-17T03:28:09.438Z,11.52
2023-05-17T03:30:56.116Z,11.23
2023-05-17T03:33:43.921Z,11.55
2023-05-17T03:36:31.552Z,10.57
2023-05-17T03:39:18.048Z,10.90
2023-05-17T03:42:04.228Z,10.43
2023-05-17T03:44:53.025Z,10.32
2023-05-17T03:47:41.024Z,10.82
2023-05-17T03:50:27.345Z,10.55
2023-05-17T03:53:13.818Z,9.35
2023-05-17T03:55:59.994Z,9.60
2023-05-17T03:58:47.875Z,9.02
2023-05-17T04:01:35.310Z,9.38
2023-05-17T04:04:21.456Z,8.80
2023-05-17T04:07:08.141Z,8.82
2023-05-17T04:10:03.769Z,8.80
2023-05-17T04:12:50.149Z,8.32
2023-05-17T04:15:36.963Z,7.80
2023-05-17T04:18:24.581Z,7.35
2023-05-17T04:21:10.980Z,6.55
2023-05-17T04:23:58.652Z,7.10
2023-05-17T04:26:46.500Z,6.70
2023-05-17T04:29:59.215Z,7.30
2023-05-17T04:32:46.204Z,5.90
2023-05-17T04:35:32.925Z,5.68
2023-05-17T04:38:19.137Z,5.22
2023-05-17T04:41:06.723Z,5.57
2023-05-17T04:43:56.384Z,4.93
2023-05-17T04:46:50.180Z,4.55
2023-05-17T04:49:37.397Z,5.07
2023-05-17T04:52:23.944Z,4.57
2023-05-17T04:55:11.435Z,4.35
2023-05-17T04:57:58.437Z,4.40
2023-05-17T05:00:46.183Z,3.97
2023-05-17T05:03:33.218Z,3.53
2023-05-17T05:06:22.643Z,3.90
2023-05-17T05:09:10.551Z,3.58
2023-05-17T05:11:58.918Z,4.10
2023-05-17T05:14:46.158Z,3.67
2023-05-17T05:17:33.235Z,3.53
2023-05-17T05:20:20.592Z,3.30
2023-05-17T05:23:07.112Z,3.40
2023-05-17T05:25:54.446Z,2.80
2023-05-17T05:28:42.784Z,3.17
2023-05-17T05:31:30.964Z,3.20
2023-05-17T05:34:20.056Z,3.20
2023-05-17T05:37:08.535Z,2.80
2023-05-17T05:39:54.857Z,3.15
2023-05-17T05:42:41.209Z,2.47
2023-05-17T05:45:27.709Z,2.33
2023-05-17T05:48:19.208Z,2.58
2023-05-17T05:51:07.850Z,2.17
2023-05-17T05:53:55.964Z,2.50
2023-05-17T05:56:42.366Z,2.53
2023-05-17T05:59:32.096Z,2.28
2023-05-17T06:02:20.026Z,2.60
2023-05-17T06:05:07.282Z,2.20
2023-05-17T06:08:01.071Z,2.15
2023-05-17T06:13:55.113Z,2.50
2023-05-17T06:16:52.294Z,2.30
2023-05-17T06:19:42.822Z,2.17
2023-05-17T06:22:35.342Z,1.95
2023-05-17T06:25:25.123Z,2.00
2023-05-17T06:28:11.727Z,2.00
2023-05-17T06:30:58.358Z,2.42
2023-05-17T06:33:44.669Z,2.08
2023-05-17T06:36:32.402Z,2.33
2023-05-17T06:39:19.357Z,2.15
2023-05-17T06:42:08.802Z,2.20
2023-05-17T06:44:58.247Z,2.03
2023-05-17T06:47:44.949Z,2.22
2023-05-17T06:50:32.313Z,2.10
2023-05-17T06:53:18.792Z,2.20
2023-05-17T06:56:04.892Z,2.22
2023-05-17T06:58:51.625Z,2.08
2023-05-17T07:01:38.249Z,2.17
2023-05-17T07:04:24.337Z,2.00
2023-05-17T07:07:11.661Z,1.60
2023-05-17T07:09:58.099Z,1.98
2023-05-17T07:12:44.140Z,1.67
2023-05-17T07:15:30.616Z,1.80
2023-05-17T07:18:17.437Z,2.00
2023-05-17T07:27:53.955Z,1.85
2023-05-17T07:30:40.216Z,1.70
2023-05-17T07:33:27.863Z,1.83
2023-05-17T07:36:14.345Z,1.80
2023-05-17T07:39:00.801Z,1.73
2023-05-17T07:42:15.980Z,1.50
2023-05-17T07:45:02.254Z,1.60
2023-05-17T07:47:48.529Z,1.55
2023-05-17T07:50:34.800Z,2.05
2023-05-17T07:53:21.345Z,1.80
2023-05-17T07:56:07.928Z,1.60
2023-05-17T07:58:54.514Z,1.30
2023-05-17T08:01:41.124Z,1.40
2023-05-17T08:04:27.359Z,1.75
2023-05-17T08:07:13.901Z,1.45
2023-05-17T08:09:59.984Z,1.52
2023-05-17T08:12:46.859Z,1.60
2023-05-17T08:15:33.125Z,2.00
2023-05-17T08:18:19.680Z,1.70
2023-05-17T08:21:06.296Z,1.95
2023-05-17T08:23:52.199Z,1.52
2023-05-17T08:26:38.865Z,1.20
2023-05-17T08:29:25.693Z,2.00
2023-05-17T08:32:11.844Z,1.60
2023-05-17T08:34:58.040Z,1.77
2023-05-17T08:37:44.369Z,2.08
2023-05-17T08:40:31.135Z,1.55
2023-05-17T08:43:17.729Z,1.60
2023-05-17T08:46:04.356Z,2.10
2023-05-17T08:48:52.217Z,1.35
2023-05-17T08:51:39.681Z,1.73
2023-05-17T08:54:27.986Z,1.83
2023-05-17T08:57:16.217Z,1.50
2023-05-17T09:00:12.685Z,1.58
2023-05-17T09:02:59.041Z,1.80
2023-05-17T09:05:46.574Z,1.75
2023-05-17T09:08:33.126Z,1.80
2023-05-17T09:11:33.226Z,1.98
2023-05-17T09:14:19.815Z,1.67
2023-05-17T09:17:07.593Z,1.95
2023-05-17T09:19:53.705Z,1.70
2023-05-17T09:22:40.583Z,1.65
2023-05-17T09:25:28.251Z,1.95
2023-05-17T09:28:14.297Z,1.88
2023-05-17T09:31:06.303Z,1.60
2023-05-17T09:33:52.673Z,1.92
2023-05-17T09:36:42.809Z,1.52
2023-05-17T09:39:29.386Z,1.60
2023-05-17T09:42:16.838Z,2.17
2023-05-17T09:45:03.194Z,1.60
2023-05-17T09:47:49.493Z,1.90
2023-05-17T09:50:36.982Z,1.85
2023-05-17T09:53:25.372Z,2.20
2023-05-17T09:56:12.334Z,1.70
2023-05-17T09:59:02.206Z,1.75
2023-05-17T10:01:51.187Z,1.90
2023-05-17T10:04:38.251Z,1.75
2023-05-17T10:07:26.138Z,1.77
2023-05-17T10:10:14.565Z,1.70
2023-05-17T10:13:02.421Z,1.60
2023-05-17T10:15:49.855Z,2.00
2023-05-17T10:18:37.805Z,1.80
2023-05-17T10:21:24.483Z,1.88
2023-05-17T10:24:11.210Z,1.98
2023-05-17T10:26:58.767Z,1.67
2023-05-17T10:29:48.423Z,2.08
2023-05-17T10:32:36.572Z,1.80
2023-05-17T10:35:24.106Z,1.60
2023-05-17T10:38:10.788Z,2.28
2023-05-17T10:40:57.564Z,2.33
2023-05-17T10:43:44.421Z,1.83
2023-05-17T10:46:31.687Z,2.03
2023-05-17T10:49:20.382Z,2.42
2023-05-17T10:52:14.557Z,1.90
2023-05-17T10:55:01.067Z,1.90
2023-05-17T10:57:58.736Z,2.22
2023-05-17T11:00:49.959Z,2.20
2023-05-17T11:03:38.845Z,2.25
2023-05-17T11:06:25.557Z,2.20
2023-05-17T11:09:16.757Z,2.00
2023-05-17T11:12:10.020Z,2.20
2023-05-17T11:14:56.476Z,1.98
2023-05-17T11:17:54.879Z,2.50
2023-05-17T11:20:42.672Z,2.45
2023-05-17T11:23:31.887Z,2.13
2023-05-17T11:26:27.698Z,2.42
2023-05-17T11:29:14.738Z,2.03
2023-05-17T11:32:07.445Z,2.35
2023-05-17T11:34:53.830Z,1.90
2023-05-17T11:37:40.789Z,2.33
2023-05-17T11:40:31.237Z,2.30
2023-05-17T11:43:19.334Z,1.90
2023-05-17T11:46:12.932Z,2.42
2023-05-17T11:48:59.528Z,2.50
2023-05-17T11:51:47.257Z,2.35
2023-05-17T11:54:33.718Z,2.42
2023-05-17T11:57:23.362Z,2.40
2023-05-17T12:00:09.907Z,2.20
2023-05-17T12:03:20.713Z,2.40
2023-05-17T12:06:10.955Z,2.83
2023-05-17T12:08:57.489Z,2.50
2023-05-17T12:11:43.548Z,2.70
2023-05-17T12:14:29.617Z,2.75
2023-05-17T12:17:34.528Z,2.50
2023-05-17T12:20:21.634Z,2.42
2023-05-17T12:23:08.542Z,2.55
2023-05-17T12:26:02.766Z,2.50
2023-05-17T12:28:58.102Z,2.30
2023-05-17T12:31:52.037Z,2.40
2023-05-17T12:34:38.431Z,2.60
2023-05-17T12:37:25.352Z,2.85
2023-05-17T12:40:12.392Z,2.33
2023-05-17T12:43:05.067Z,2.70
2023-05-17T12:45:53.477Z,2.73
2023-05-17T12:48:41.597Z,2.95
2023-05-17T12:51:27.994Z,3.00
2023-05-17T12:54:19.535Z,2.45
2023-05-17T12:57:14.036Z,2.60
2023-05-17T13:00:03.091Z,2.50
2023-05-17T13:02:49.437Z,2.72
2023-05-17T13:05:36.242Z,2.72
2023-05-17T13:08:23.195Z,2.90
2023-05-17T13:11:10.562Z,2.88
2023-05-17T13:13:57.152Z,3.00
2023-05-17T13:16:43.336Z,2.65
2023-05-17T13:19:30.150Z,3.00
2023-05-17T13:22:16.709Z,2.60
2023-05-17T13:25:04.289Z,3.05
2023-05-17T13:27:50.913Z,3.05
2023-05-17T13:30:38.177Z,2.80
2023-05-17T13:33:27.949Z,2.83
2023-05-17T13:36:14.764Z,3.05
2023-05-17T13:39:02.723Z,3.50
2023-05-17T13:41:49.216Z,2.90
2023-05-17T13:44:35.401Z,3.47
2023-05-17T13:47:22.100Z,3.20
2023-05-17T13:50:09.449Z,3.03
2023-05-17T13:52:56.055Z,3.28
2023-05-17T13:55:43.088Z,3.00
2023-05-17T13:58:29.372Z,3.20
2023-05-17T14:01:16.711Z,3.10
2023-05-17T14:04:03.840Z,3.13
2023-05-17T14:06:54.874Z,3.55
2023-05-17T14:09:41.337Z,3.28
2023-05-17T14:12:28.117Z,3.05
2023-05-17T14:15:15.997Z,2.90
2023-05-17T14:18:02.239Z,3.13
2023-05-17T14:24:31.106Z,3.15
2023-05-17T14:27:43.202Z,3.13
2023-05-17T14:30:29.657Z,3.50
2023-05-17T14:33:16.322Z,3.05
2023-05-17T14:36:04.537Z,2.70
2023-05-17T14:38:51.659Z,3.35
2023-05-17T14:41:39.427Z,3.53
2023-05-17T14:44:27.216Z,2.92
2023-05-17T14:47:13.193Z,2.95
2023-05-17T14:49:59.402Z,2.80
2023-05-17T14:52:46.037Z,2.80
2023-05-17T14:55:32.356Z,2.40
2023-05-17T14:58:18.661Z,2.50
2023-05-17T15:01:07.134Z,2.33
2023-05-17T15:03:53.606Z,2.60
2023-05-17T15:06:40.198Z,2.58
2023-05-17T15:09:26.726Z,2.65
2023-05-17T15:12:14.341Z,2.53
2023-05-17T15:15:00.785Z,2.72
2023-05-17T15:17:47.349Z,2.80
2023-05-17T15:20:35.043Z,2.67
2023-05-17T15:23:21.720Z,2.90
2023-05-17T15:26:08.253Z,2.72
2023-05-17T15:28:54.454Z,3.00
2023-05-17T15:31:40.672Z,2.90
2023-05-17T15:34:29.245Z,3.10
2023-05-17T15:37:15.707Z,3.38
2023-05-17T15:40:09.825Z,3.22
2023-05-17T15:42:56.411Z,3.55
2023-05-17T15:45:43.652Z,3.92
2023-05-17T15:48:30.325Z,3.40
2023-05-17T15:51:17.041Z,3.53
2023-05-17T15:54:06.107Z,3.15
2023-05-17T15:56:53.078Z,3.30
2023-05-17T15:59:40.134Z,3.38
2023-05-17T16:02:27.358Z,3.20
2023-05-17T16:05:13.674Z,3.47
2023-05-17T16:08:00.181Z,3.80
2023-05-17T16:10:47.399Z,2.97
2023-05-17T16:13:33.849Z,3.33
2023-05-17T16:16:20.855Z,3.92
2023-05-17T16:19:07.853Z,3.60
2023-05-17T16:21:54.726Z,3.20
2023-05-17T16:24:41.503Z,3.38
2023-05-17T16:27:27.911Z,3.15
2023-05-17T16:30:14.224Z,3.40
2023-05-17T16:33:00.595Z,3.47
2023-05-17T16:35:50.370Z,3.60
2023-05-17T16:38:36.808Z,3.50
2023-05-17T16:41:23.880Z,3.63
2023-05-17T16:44:10.854Z,3.38
2023-05-17T16:46:57.603Z,3.03
2023-05-17T16:58:31.880Z,3.00
2023-05-17T17:01:18.072Z,3.35
2023-05-17T17:04:05.060Z,2.92
2023-05-17T17:06:58.729Z,3.40
2023-05-17T17:09:50.071Z,3.00
2023-05-17T17:12:36.701Z,3.50
2023-05-17T17:15:23.829Z,2.95
2023-05-17T17:18:10.640Z,3.45
2023-05-17T17:20:57.941Z,3.00
2023-05-17T17:23:47.844Z,3.42
2023-05-17T17:26:39.768Z,3.35
2023-05-17T17:29:29.855Z,3.22
2023-05-17T17:32:16.584Z,2.95
2023-05-17T17:35:02.856Z,2.90
2023-05-17T17:37:48.948Z,2.80
2023-05-17T17:40:35.328Z,2.95
2023-05-17T17:43:22.934Z,2.50
2023-05-17T17:46:09.809Z,2.65
2023-05-17T17:48:56.893Z,2.92
2023-05-17T17:51:46.479Z,3.17
2023-05-17T17:54:33.782Z,2.95
2023-05-17T17:57:20.364Z,2.60
2023-05-17T18:00:11.724Z,2.38
2023-05-17T18:03:00.390Z,2.50
2023-05-17T18:05:48.676Z,2.70
2023-05-17T18:08:45.784Z,2.97
2023-05-17T18:11:32.168Z,2.97
2023-05-17T18:14:18.269Z,3.45
2023-05-17T18:17:04.668Z,3.88
2023-05-17T18:19:51.679Z,3.30
2023-05-17T18:22:38.783Z,3.17
2023-05-17T18:25:25.621Z,3.10
2023-05-17T18:28:12.535Z,2.58
2023-05-17T18:30:59.462Z,2.60
2023-05-17T18:33:46.412Z,2.40
2023-05-17T18:36:33.244Z,2.70
2023-05-17T18:39:19.829Z,2.80
2023-05-17T18:42:06.653Z,2.55
2023-05-17T18:44:53.570Z,4.00
2023-05-17T18:47:40.067Z,3.35
2023-05-17T18:50:26.497Z,3.13
2023-05-17T18:53:13.149Z,3.40
2023-05-17T18:56:01.708Z,3.15
2023-05-17T18:58:50.181Z,2.92
2023-05-17T19:01:37.687Z,3.22
2023-05-17T19:04:26.362Z,3.10
2023-05-17T19:07:14.365Z,3.22
2023-05-17T19:10:01.357Z,3.00
2023-05-17T19:12:48.169Z,2.55
2023-05-17T19:15:34.504Z,2.42
2023-05-17T19:18:21.642Z,2.63
2023-05-17T19:21:08.516Z,2.20
2023-05-17T19:23:55.466Z,2.40
2023-05-17T19:26:42.520Z,2.45
2023-05-17T19:29:32.032Z,2.13
2023-05-17T19:32:20.779Z,2.47
2023-05-17T19:35:08.150Z,2.65
2023-05-17T19:37:57.548Z,2.33
2023-05-17T19:40:44.530Z,1.85
2023-05-17T19:43:32.915Z,2.65
2023-05-17T19:46:20.552Z,2.40
2023-05-17T19:49:07.451Z,1.77
2023-05-17T19:51:54.882Z,2.58
2023-05-17T19:54:41.869Z,2.10
2023-05-17T19:57:28.856Z,2.10
2023-05-17T20:00:18.386Z,2.17
2023-05-17T20:03:06.503Z,2.00
2023-05-17T20:05:53.272Z,2.13
2023-05-17T20:08:40.248Z,2.28
2023-05-17T20:11:27.254Z,1.75
2023-05-17T20:14:14.118Z,2.60
2023-05-17T20:17:00.297Z,2.00
2023-05-17T20:19:47.245Z,2.67
2023-05-17T20:22:33.668Z,2.80
2023-05-17T20:25:20.050Z,2.70
2023-05-17T20:28:06.189Z,2.67
2023-05-17T20:30:52.425Z,2.30
2023-05-17T20:33:38.672Z,2.60
2023-05-17T20:36:25.346Z,2.75
2023-05-17T20:39:11.947Z,2.85
2023-05-17T20:42:01.927Z,3.00
2023-05-17T20:44:54.310Z,2.30
2023-05-17T20:47:40.634Z,2.53
2023-05-17T20:50:27.751Z,2.67
2023-05-17T20:53:14.115Z,2.67
2023-05-17T20:56:00.388Z,2.38
2023-05-17T20:58:47.238Z,2.72
2023-05-17T21:01:52.026Z,2.00
2023-05-17T21:04:44.523Z,2.35
2023-05-17T21:07:31.070Z,2.15
2023-05-17T21:10:18.190Z,2.55
2023-05-17T21:13:04.658Z,2.75
2023-05-17T21:15:50.918Z,2.47
2023-05-17T21:18:36.995Z,2.28
2023-05-17T21:21:23.288Z,2.45
2023-05-17T21:24:09.627Z,2.67
2023-05-17T21:26:56.210Z,2.78
2023-05-17T21:29:43.225Z,2.30
2023-05-17T21:32:30.444Z,2.05
2023-05-17T21:35:16.735Z,2.42
2023-05-17T21:38:03.419Z,2.22
2023-05-17T21:40:50.404Z,2.38
2023-05-17T21:43:37.378Z,2.65
2023-05-17T21:46:24.364Z,3.20
2023-05-17T21:49:11.160Z,2.25
2023-05-17T21:51:58.259Z,2.65
2023-05-17T21:54:45.061Z,2.25
2023-05-17T21:57:33.124Z,2.78
2023-05-17T22:00:21.143Z,2.53
2023-05-17T22:03:08.104Z,2.15
2023-05-17T22:05:54.844Z,2.40
2023-05-17T22:08:42.891Z,2.53
2023-05-17T22:11:29.548Z,2.13
2023-05-17T22:14:16.349Z,2.42
2023-05-17T22:17:08.114Z,2.42
2023-05-17T22:19:55.141Z,2.35
2023-05-17T22:22:42.106Z,2.70
2023-05-17T22:25:28.650Z,2.47
2023-05-17T22:28:14.904Z,2.40
2023-05-17T22:31:02.397Z,2.40
2023-05-17T22:33:49.163Z,2.10
2023-05-17T22:36:35.226Z,2.30
2023-05-17T22:39:22.560Z,2.25
2023-05-17T22:42:09.979Z,2.20
2023-05-17T22:44:56.347Z,2.13
2023-05-17T22:47:43.406Z,2.15
2023-05-17T22:50:30.834Z,2.10
2023-05-17T22:53:18.711Z,2.20
2023-05-17T22:56:05.766Z,2.28
2023-05-17T22:58:52.478Z,2.05
2023-05-17T23:01:39.612Z,2.08
2023-05-17T23:04:28.468Z,2.40
2023-05-17T23:07:15.791Z,2.00
2023-05-17T23:10:03.405Z,2.40
2023-05-17T23:12:52.459Z,2.00
2023-05-17T23:15:41.309Z,2.03
2023-05-17T23:18:28.550Z,1.90
2023-05-17T23:21:15.501Z,1.80
2023-05-17T23:24:02.259Z,2.17
2023-05-17T23:26:49.352Z,1.88
2023-05-17T23:29:35.807Z,2.40
2023-05-17T23:32:23.693Z,2.47
2023-05-17T23:35:11.153Z,2.67
2023-05-17T23:37:57.799Z,2.10
2023-05-17T23:40:44.546Z,1.85
2023-05-17T23:43:31.477Z,1.92
2023-05-17T23:46:20.143Z,1.98
2023-05-17T23:49:06.360Z,1.70
2023-05-17T23:51:53.343Z,2.22
2023-05-17T23:54:40.073Z,1.80
2023-05-17T23:57:29.395Z,1.92
